Aktualne dane pomiarowe

Uwaga, wersja testowa! Automatyczne pobieranie danych za pomocą narzędzi lub skryptów to umożliwiających jest zabronione.

Dane meteo z obszaru Polski uzyskane na podstawie depesz SYNOP pobieranych co godzinę z NWS. Najedź myszką na symbol przedstawiony w tabeli, aby uzyskać informacje co do jego znaczenia. Prosimy pamiętać, że to testowa wersja strony, która jeszcze nie jest ukończona. Stworzono również jest krótki FAQ dotyczący korzystania z tej podstrony Anomalie temperatury w chwili obecnej odniesione są do okresu referencyjnego 1951-2016. Okres ten będzie później zmieniony na 1981-2010. Kliknij ikonę aby pobrać plik CSV. Kliknij ikonę aby wygenerować mapę synoptyczną dla danego terminu.

Wybierz Datę:    

        

Zielona Góra (12400)

Dane terminowe dla wybranej stacji. Kliknij datę, aby otrzymać dane z tego terminu dla wszystkich stacji.

TemperaturaZachmurzenieWiatrCiśnienieOpadyPogoda
 Data t td wb tx tn tg rh  Nt Nl Cl Cm Ch ws wd g1 g2 wx mslp ppp ch 24h 12h t ww ww w1 w2  
2019-06-22 23:00:00 18.1 8.9 12.7--- 5550.0wx-wx3wx--31021.5 998.7 0.8---------
2019-06-22 22:00:00 19.5 8.8 13.3--- 5050.0wx-wx4wx--41021.3 998.6 0.9---------
2019-06-22 21:00:00 20.3 8.6 13.5--- 4750.0wx-wx3wx--31020.8 998.2 0.8---------
2019-06-22 20:00:00 20.8 8.4 13.7--- 4550.0wx-wx2wx--21020.5 997.9 0.3---------
2019-06-22 19:00:00 22.0 7.8 14.0--- 4050.0wx-wx2wx--21020.2 997.7 -0.2---------
2019-06-22 18:00:00 23.5 7.1 14.3 26.0 18.5- 3550.0wxwxwxwx3wx--31019.8 997.4 -0.7- 0.012------
2019-06-22 17:00:00 24.1 6.8 14.5--- 3350.0wxwxwxwx3wx--31019.9 997.6 -0.8---------
2019-06-22 16:00:00 24.7 7.3 14.9--- 3350.0wxwxwxwx3wx--31020.2 997.9 -1.1---------
2019-06-22 15:00:00 24.7 6.9 14.7--- 3250.0wxwxwxwxwx3wx--31020.4 998.1 -1.2---------
2019-06-22 14:00:00 25.2 7.8 15.3--- 3350.0wxwxwxwxwx3wx--31020.7 998.4 -1.5---------
2019-06-22 13:00:00 24.6 8.1 15.2--- 3550.0wxwxwxwxwx4wx--41021.3 999.0 -0.9---------
2019-06-22 12:00:00 24.7 8.6 15.5--- 3650.0wxwxwxwx3wx--31021.6 999.3 -0.8- 0.06------
2019-06-22 11:00:00 23.4 7.5 14.4--- 3650.0wxwxwxwx3wx---1022.3 999.9 -0.2---------
2019-06-22 10:00:00 23.2 8.8 14.9--- 4045.0wxwxwxwx2wx--21022.3 999.9 -0.2---------
2019-06-22 09:00:00 22.3 9.5 14.8--- 4445.0wxwxwxwx3wx--31022.61000.1 0.1---------
2019-06-22 08:00:00 21.4 10.8 15.0--- 5145.0wxwxwxwx2wx--21022.71000.1 0.6---------
2019-06-22 07:00:00 20.0 12.5 15.3--- 6240.0wx-wx3wx--31022.81000.1 1.1---------
2019-06-22 06:00:00 18.5 12.0 14.4 22.9 16.4 16 6640.0wx-wxwx3wx---1022.81000.0 1.5-------- 6.8
2019-06-22 05:00:00 17.3 13.8 14.9--- 8025.0wx-wxwx3wx--31022.4 999.5 1.3---------
2019-06-22 04:00:00 16.9 14.0 14.9--- 8330.0wx-wxwx2wx--21021.9 999.0 1.0---------
2019-06-22 03:00:00 16.5 14.0 14.8--- 8530.0wx-wxwx2wx--21021.4 998.5 0.7---------
2019-06-22 02:00:00 16.7 13.8 14.7--- 8340.0wx-3wx--31021.1 998.2 0.7---------
2019-06-22 01:00:00 17.1 13.6 14.7--- 8045.0wx-3wx--31020.9 998.0 0.6---------
2019-06-22 00:00:00 17.6 13.1 14.6--- 7550.0wx-wx3wx--31020.6 997.8 1.0- 0.06------
2019-06-21 23:00:00 18.4 13.0 14.9--- 7150.0wx-wxwx2wx--21020.3 997.5 1.3---------
2019-06-21 22:00:00 19.1 12.8 15.1--- 6750.0wxwxwxwxwx2wx--21020.1 997.4 2.2---------
2019-06-21 21:00:00 20.2 12.7 15.5--- 6250.0wx-wxwx1wx--11019.4 996.8 2.2---------
2019-06-21 20:00:00 21.1 12.0 15.5--- 5650.0wx-wxwx1wx--11018.7 996.2 2.0---------
2019-06-21 19:00:00 22.5 11.6 15.9--- 5050.0wxwxwxwxwx2wx--21017.6 995.2 1.2---------
2019-06-21 18:00:00 22.7 11.4 15.9 25.9 19.0- 4950.0wxwxwxwxwx3wx--31017.0 994.6 0.9- 0.012------
2019-06-21 17:00:00 23.4 11.8 16.3--- 4845.0wxwxwxwx4wx---1016.5 994.2 0.6---------
2019-06-21 16:00:00 23.6 12.6 16.8--- 5040.0wxwxwxwx4wx--41016.3 994.0 0.4---------
2019-06-21 15:00:00 24.9 12.8 17.4--- 4740.0wxwxwxwxwx4wx---1015.9 993.7 0.2---------
2019-06-21 14:00:00 24.6 12.9 17.4--- 4840.0wxwxwxwx5wx--51015.8 993.6 0.1---------
2019-06-21 13:00:00 24.6 12.9 17.4--- 4850.0wxwxwxwx4wx--41015.8 993.6 -0.2---------
2019-06-21 12:00:00 24.3 13.2 17.4--- 5040.0wxwxwxwxwx4wx-841015.7 993.5 -0.1- 0.06------
2019-06-21 11:00:00 24.1 13.3 17.4--- 5140.0wxwxwxwxwx2wx---1015.7 993.5 0.2---------
2019-06-21 10:00:00 23.1 14.9 17.8--- 6050.0wxwxwxwxwx3wx---1016.1 993.8 0.7---------
2019-06-21 09:00:00 22.3 14.7 17.4--- 6250.0wxwxwxwx2wx--21016.0 993.6 0.9---------
2019-06-21 08:00:00 21.8 14.4 17.0--- 6340.0wxwxwxwxwx3wx--31015.7 993.3 0.7---------
2019-06-21 07:00:00 20.8 14.2 16.5--- 6650.0wxwxwxwx2wx--21015.6 993.1 1.0---------
2019-06-21 06:00:00 19.0 15.1 16.3 26.3 16.5 17 7850.0wx-wx2wx-821014.2 991.6 0.2 0.2 0.212wx-w1- 13.9
2019-06-21 05:00:00 18.0 14.7 15.7--- 8150.0wxwxwxwx2wx--21014.3 991.6 0.2---------
2019-06-21 04:00:00 17.1 14.4 15.2--- 8440.0wx-wx2wx--21014.3 991.6 0.1---------
2019-06-21 03:00:00 17.2 14.7 15.5--- 8540.0wxwxwxwx1wx-811014.1 991.4 0.7---wx-w1--
2019-06-21 02:00:00 17.2 14.8 15.5--- 8620.0wxwxwx2wx--21014.1 991.4 1.2---wx-w1w2--
2019-06-21 01:00:00 18.9 14.4 15.9--- 7535.0wxwxwx5wx-851014.1 991.5 1.2---wx-w1--
2019-06-21 00:00:00 20.1 14.0 16.1--- 6850.0wx-wx2wx--21013.2 990.7 0.8- 0.06------
2.8 ms

 

Print Friendly, PDF & Email